createdAt,value
2017-05-29T00:00:44.172Z,66.63
2017-05-29T00:02:00.227Z,66.43
2017-05-29T00:03:15.982Z,66.53
2017-05-29T00:04:32.559Z,66.33
2017-05-29T00:05:48.640Z,66.72
2017-05-29T00:07:04.739Z,66.63
2017-05-29T00:08:20.899Z,66.53
2017-05-29T00:09:37.341Z,66.91
2017-05-29T00:10:53.557Z,67.11
2017-05-29T00:12:09.633Z,67.11
2017-05-29T00:13:24.485Z,66.72
2017-05-29T00:14:40.890Z,67.4
2017-05-29T00:15:55.592Z,67.49
2017-05-29T00:17:11.659Z,67.4
2017-05-29T00:18:27.714Z,67.59
2017-05-29T00:19:44.214Z,67.59
2017-05-29T00:21:00.287Z,67.4
2017-05-29T00:22:14.924Z,67.4
2017-05-29T00:23:30.824Z,67.49
2017-05-29T00:24:47.629Z,67.4
2017-05-29T00:26:03.399Z,67.4
2017-05-29T00:27:19.544Z,67.78
2017-05-29T00:28:35.320Z,67.75
2017-05-29T00:29:50.909Z,68.33
2017-05-29T00:31:06.364Z,68.23
2017-05-29T00:32:21.867Z,68.13
2017-05-29T00:33:37.350Z,68.62
2017-05-29T00:34:51.538Z,68.71
2017-05-29T00:36:07.019Z,68.71
2017-05-29T00:37:22.503Z,69.2
2017-05-29T00:38:37.947Z,68.71
2017-05-29T00:39:53.606Z,68.71
2017-05-29T00:41:09.069Z,68.43
2017-05-29T00:42:24.862Z,68.43
2017-05-29T00:43:39.976Z,68.81
2017-05-29T00:44:54.337Z,68.62
2017-05-29T00:46:09.886Z,68.62
2017-05-29T00:47:25.556Z,68.52
2017-05-29T00:48:40.955Z,69
2017-05-29T00:49:55.275Z,68.62
2017-05-29T00:51:10.723Z,68.59
2017-05-29T00:52:24.961Z,68.62
2017-05-29T00:53:40.761Z,68.81
2017-05-29T00:54:55.084Z,68.43
2017-05-29T00:56:10.782Z,68.68
2017-05-29T00:57:24.974Z,68.77
2017-05-29T00:58:39.144Z,68.43
2017-05-29T00:59:54.811Z,68.39
2017-05-29T01:01:10.263Z,68.39
2017-05-29T01:02:25.663Z,68.33
2017-05-29T01:03:41.440Z,68.13
2017-05-29T01:04:56.827Z,67.91
2017-05-29T01:06:12.313Z,67.62
2017-05-29T01:07:27.809Z,67.81
2017-05-29T01:08:43.254Z,67.71
2017-05-29T01:09:58.980Z,68.01
2017-05-29T01:11:14.361Z,67.91
2017-05-29T01:12:28.532Z,67.91
2017-05-29T01:13:43.997Z,68.01
2017-05-29T01:14:59.835Z,68.01
2017-05-29T01:16:14.035Z,67.81
2017-05-29T01:17:29.505Z,67.71
2017-05-29T01:18:44.557Z,67.52
2017-05-29T01:20:00.256Z,67.14
2017-05-29T01:21:15.697Z,67.14
2017-05-29T01:22:31.151Z,67.71
2017-05-29T01:23:46.593Z,68.19
2017-05-29T01:25:02.232Z,67.71
2017-05-29T01:26:17.865Z,67.52
2017-05-29T01:27:33.330Z,68.01
2017-05-29T01:28:48.759Z,68.01
2017-05-29T01:30:04.415Z,67.91
2017-05-29T01:31:18.582Z,67.81
2017-05-29T01:32:34.037Z,67.81
2017-05-29T01:33:48.333Z,68.1
2017-05-29T01:35:03.771Z,68.19
2017-05-29T01:36:19.433Z,68.1
2017-05-29T01:37:33.584Z,68.39
2017-05-29T01:38:49.033Z,68.49
2017-05-29T01:40:04.495Z,68.49
2017-05-29T01:41:18.717Z,68.55
2017-05-29T01:42:31.720Z,68.26
2017-05-29T01:43:47.178Z,68.55
2017-05-29T01:45:02.609Z,68.65
2017-05-29T01:46:18.303Z,68.65
2017-05-29T01:47:32.461Z,68.84
2017-05-29T01:48:46.628Z,68.55
2017-05-29T01:50:02.080Z,68.84
2017-05-29T01:51:18.043Z,69.13
2017-05-29T01:52:32.453Z,69.03
2017-05-29T01:53:48.293Z,69.03
2017-05-29T01:55:03.829Z,69.13
2017-05-29T01:56:19.481Z,69.51
2017-05-29T01:57:33.663Z,69.42
2017-05-29T01:58:47.845Z,69.32
2017-05-29T02:00:01.998Z,69.13
2017-05-29T02:01:17.736Z,69.23
2017-05-29T02:02:33.510Z,69.42
2017-05-29T02:03:48.925Z,69.23
2017-05-29T02:05:04.349Z,69.23
2017-05-29T02:06:20.031Z,69.51
2017-05-29T02:07:35.509Z,69.8
2017-05-29T02:08:50.984Z,69.71
2017-05-29T02:10:06.481Z,69.67
2017-05-29T02:11:20.825Z,70
2017-05-29T02:12:33.492Z,70.09
2017-05-29T02:13:47.712Z,69.96
2017-05-29T02:15:03.175Z,70.15
2017-05-29T02:16:18.842Z,70.35
2017-05-29T02:17:34.290Z,70.15
2017-05-29T02:18:49.735Z,70.35
2017-05-29T02:20:04.837Z,70.44
2017-05-29T02:21:20.583Z,70.44
2017-05-29T02:22:35.976Z,70.35
2017-05-29T02:23:51.433Z,70.06
2017-05-29T02:25:06.925Z,70.06
2017-05-29T02:26:22.640Z,69.96
2017-05-29T02:27:38.149Z,70.25
2017-05-29T02:28:53.896Z,70.15
2017-05-29T02:30:09.434Z,70.35
2017-05-29T02:31:25.143Z,71.02
2017-05-29T02:32:40.573Z,70.73
2017-05-29T02:33:56.383Z,70.83
2017-05-29T02:35:10.696Z,70.73
2017-05-29T02:36:26.371Z,70.83
2017-05-29T02:37:40.606Z,70.54
2017-05-29T02:38:56.086Z,70.35
2017-05-29T02:40:11.762Z,70.64
2017-05-29T02:41:27.393Z,71.31
2017-05-29T02:42:42.981Z,70.92
2017-05-29T02:43:58.410Z,70.92
2017-05-29T02:45:14.127Z,71.12
2017-05-29T02:46:29.852Z,71.02
2017-05-29T02:47:44.000Z,71.31
2017-05-29T02:48:58.076Z,71.22
2017-05-29T02:50:13.538Z,71.79
2017-05-29T02:51:29.018Z,71.79
2017-05-29T02:52:44.685Z,71.18
2017-05-29T02:54:00.138Z,71.79
2017-05-29T02:55:15.700Z,71.7
2017-05-29T02:56:31.192Z,71.66
2017-05-29T02:57:46.861Z,71.47
2017-05-29T02:59:02.320Z,71.76
2017-05-29T03:00:17.707Z,71.56
2017-05-29T03:01:32.756Z,71.56
2017-05-29T03:02:47.128Z,71.76
2017-05-29T03:04:01.608Z,71.56
2017-05-29T03:05:15.617Z,71.85
2017-05-29T03:06:31.223Z,71.56
2017-05-29T03:07:45.717Z,71.56
2017-05-29T03:09:01.076Z,71.76
2017-05-29T03:10:16.514Z,71.76
2017-05-29T03:11:31.958Z,71.47
2017-05-29T03:12:47.693Z,71.66
2017-05-29T03:14:01.665Z,71.56
2017-05-29T03:15:17.123Z,71.47
2017-05-29T03:16:32.600Z,71.47
2017-05-29T03:17:48.504Z,71.47
2017-05-29T03:19:03.923Z,71.08
2017-05-29T03:20:19.412Z,71.08
2017-05-29T03:21:35.099Z,71.18
2017-05-29T03:22:50.854Z,71.18
2017-05-29T03:24:06.229Z,71.08
2017-05-29T03:25:21.736Z,70.5
2017-05-29T03:26:37.161Z,70.5
2017-05-29T03:27:52.822Z,70.79
2017-05-29T03:29:08.365Z,70.7
2017-05-29T03:30:23.802Z,70.89
2017-05-29T03:31:39.242Z,70.41
2017-05-29T03:32:53.543Z,70.41
2017-05-29T03:34:39.839Z,70.6
2017-05-29T03:35:55.281Z,70.31
2017-05-29T03:37:09.692Z,70.79
2017-05-29T03:38:25.116Z,70.21
2017-05-29T03:39:40.538Z,70.02
2017-05-29T03:40:55.929Z,70.12
2017-05-29T03:42:11.629Z,70.21
2017-05-29T03:43:27.009Z,70.21
2017-05-29T03:44:42.647Z,69.93
2017-05-29T03:45:56.693Z,69.73
2017-05-29T03:47:12.285Z,69.45
2017-05-29T03:48:27.858Z,69.54
2017-05-29T03:49:42.045Z,69.64
2017-05-29T03:50:54.910Z,68.87
2017-05-29T03:52:10.539Z,69.09
2017-05-29T03:53:24.529Z,69.15
2017-05-29T03:54:38.679Z,69.35
2017-05-29T03:55:52.815Z,69.35
2017-05-29T03:57:08.273Z,68.96
2017-05-29T03:58:23.908Z,69.25
2017-05-29T03:59:39.495Z,68.96
2017-05-29T04:00:55.017Z,69.15
2017-05-29T04:02:10.484Z,69.29
2017-05-29T04:03:24.725Z,69.25
2017-05-29T04:04:38.906Z,69.15
2017-05-29T04:05:54.404Z,69.19
2017-05-29T04:07:09.781Z,68.9
2017-05-29T04:08:24.148Z,68.71
2017-05-29T04:09:39.572Z,68.9
2017-05-29T04:10:55.058Z,68.9
2017-05-29T04:12:10.447Z,68.61
2017-05-29T04:13:26.089Z,68.9
2017-05-29T04:14:41.605Z,68.68
2017-05-29T04:15:57.082Z,68.87
2017-05-29T04:17:12.571Z,68.87
2017-05-29T04:18:28.287Z,68.61
2017-05-29T04:19:43.729Z,68.48
2017-05-29T04:20:57.876Z,68.48
2017-05-29T04:22:13.303Z,68.96
2017-05-29T04:23:29.135Z,68.19
2017-05-29T04:24:44.637Z,68.96
2017-05-29T04:25:58.888Z,68
2017-05-29T04:27:14.383Z,68.48
2017-05-29T04:28:30.049Z,68.19
2017-05-29T04:29:45.447Z,67.81
2017-05-29T04:31:00.915Z,68.1
2017-05-29T04:32:16.393Z,67.61
2017-05-29T04:33:32.088Z,67.9
2017-05-29T04:34:47.579Z,67.03
2017-05-29T04:36:01.811Z,67.33
2017-05-29T04:37:17.215Z,66.85
2017-05-29T04:38:32.864Z,66.17
2017-05-29T04:39:48.545Z,66.49
2017-05-29T04:41:03.945Z,66.49
2017-05-29T04:42:19.407Z,66.2
2017-05-29T04:43:34.946Z,65.91
2017-05-29T04:44:49.120Z,65.81
2017-05-29T04:46:03.286Z,65.24
2017-05-29T04:47:18.770Z,64.86
2017-05-29T04:48:34.434Z,64.86
2017-05-29T04:49:49.891Z,64.76
2017-05-29T04:51:05.307Z,64.66
2017-05-29T04:52:19.460Z,63.89
2017-05-29T04:54:05.734Z,63.7
2017-05-29T04:55:19.850Z,62.86
2017-05-29T04:56:33.854Z,63.06
2017-05-29T04:57:49.270Z,62.66
2017-05-29T04:59:04.977Z,62.28
2017-05-29T05:00:20.050Z,61.71
2017-05-29T05:01:35.421Z,61.8
2017-05-29T05:02:51.222Z,61.9
2017-05-29T05:04:05.434Z,61.25
2017-05-29T05:05:20.883Z,61.22
2017-05-29T05:06:36.314Z,60.45
2017-05-29T05:07:51.827Z,60.38
2017-05-29T05:09:07.478Z,60.64
2017-05-29T05:10:21.476Z,60.26
2017-05-29T05:11:37.143Z,60.83
2017-05-29T05:12:52.623Z,60.64
2017-05-29T05:14:08.281Z,60.83
2017-05-29T05:15:23.747Z,60.83
2017-05-29T05:16:38.056Z,60.93
2017-05-29T05:17:52.235Z,61.03
2017-05-29T05:19:08.074Z,60.64
2017-05-29T05:20:23.496Z,60.64
2017-05-29T05:21:37.685Z,61.03
2017-05-29T05:22:51.801Z,61.03
2017-05-29T05:24:07.176Z,60.55
2017-05-29T05:25:22.584Z,60.74
2017-05-29T05:26:36.735Z,60.35
2017-05-29T05:27:52.182Z,60.26
2017-05-29T05:29:07.854Z,60.45
2017-05-29T05:30:22.195Z,60.55
2017-05-29T05:31:37.677Z,60.35
2017-05-29T05:32:53.125Z,60.64
2017-05-29T05:34:08.785Z,60.55
2017-05-29T05:35:24.287Z,60.83
2017-05-29T05:36:38.502Z,60.45
2017-05-29T05:37:53.975Z,60.64
2017-05-29T05:39:09.614Z,60.16
2017-05-29T05:40:25.087Z,59.9
2017-05-29T05:41:40.515Z,59.8
2017-05-29T05:42:56.023Z,60.1
2017-05-29T05:44:11.646Z,60.1
2017-05-29T05:45:27.051Z,59.42
2017-05-29T05:46:42.516Z,59.71
2017-05-29T05:47:57.907Z,58.75
2017-05-29T05:49:13.585Z,58.84
2017-05-29T05:50:29.074Z,58.75
2017-05-29T05:51:44.507Z,58.94
2017-05-29T05:52:58.542Z,58.84
2017-05-29T05:54:14.223Z,58.55
2017-05-29T05:55:29.749Z,58.45
2017-05-29T05:56:45.245Z,58.48
2017-05-29T05:58:00.685Z,58.48
2017-05-29T05:59:16.434Z,58.39
2017-05-29T06:00:31.873Z,57.9
2017-05-29T06:01:44.713Z,57.9
2017-05-29T06:02:59.803Z,57.52
2017-05-29T06:04:15.229Z,57.62
2017-05-29T06:05:31.106Z,57.62
2017-05-29T06:06:46.642Z,57.62
2017-05-29T06:08:02.113Z,58.19
2017-05-29T06:09:16.248Z,58.58
2017-05-29T06:10:31.937Z,58.19
2017-05-29T06:11:47.341Z,58.39
2017-05-29T06:13:02.754Z,58.1
2017-05-29T06:14:15.576Z,58.29
2017-05-29T06:15:31.391Z,58.39
2017-05-29T06:16:46.824Z,57.62
2017-05-29T06:18:02.331Z,58.29
2017-05-29T06:19:16.493Z,58
2017-05-29T06:20:32.140Z,58.19
2017-05-29T06:21:47.591Z,58.29
2017-05-29T06:23:01.694Z,58.1
2017-05-29T06:24:17.167Z,58.48
2017-05-29T06:25:30.084Z,58.68
2017-05-29T06:26:45.446Z,58.12
2017-05-29T06:28:00.887Z,58.1
2017-05-29T06:29:16.493Z,58.42
2017-05-29T06:30:32.186Z,57.93
2017-05-29T06:31:47.618Z,58.32
2017-05-29T06:33:01.784Z,58.32
2017-05-29T06:34:16.909Z,58.32
2017-05-29T06:35:32.159Z,58.48
2017-05-29T06:36:46.265Z,58.77
2017-05-29T06:38:00.268Z,58.58
2017-05-29T06:39:14.670Z,58.87
2017-05-29T06:40:30.549Z,58.68
2017-05-29T06:41:44.838Z,58.77
2017-05-29T06:42:58.858Z,58.77
2017-05-29T06:44:14.311Z,58.87
2017-05-29T06:45:29.970Z,59.45
2017-05-29T06:46:45.430Z,59.06
2017-05-29T06:48:00.919Z,58.87
2017-05-29T06:49:15.082Z,58.77
2017-05-29T06:50:30.743Z,59.16
2017-05-29T06:51:44.888Z,58.97
2017-05-29T06:53:00.707Z,59.16
2017-05-29T06:54:16.097Z,58.8
2017-05-29T06:55:31.763Z,58.51
2017-05-29T06:56:45.558Z,58.61
2017-05-29T06:57:59.594Z,58.22
2017-05-29T06:59:15.061Z,57.74
2017-05-29T07:00:30.540Z,57.64
2017-05-29T07:01:45.002Z,57.64
2017-05-29T07:03:00.415Z,57.67
2017-05-29T07:04:16.212Z,57.29
2017-05-29T07:05:30.248Z,56.99
2017-05-29T07:06:44.612Z,57.09
2017-05-29T07:08:00.034Z,57.09
2017-05-29T07:09:15.488Z,56.8
2017-05-29T07:10:29.736Z,56.51
2017-05-29T07:11:45.399Z,55.74
2017-05-29T07:13:00.826Z,55.57
2017-05-29T07:14:14.962Z,55.67
2017-05-29T07:15:30.384Z,55.57
2017-05-29T07:16:44.755Z,54.83
2017-05-29T07:18:00.209Z,55.02
2017-05-29T07:19:14.221Z,54.93
2017-05-29T07:20:29.741Z,54.63
2017-05-29T07:21:45.394Z,54.73
2017-05-29T07:23:00.912Z,54.75
2017-05-29T07:24:16.377Z,54.47
2017-05-29T07:25:30.479Z,53.59
2017-05-29T07:26:46.179Z,54.17
2017-05-29T07:28:00.181Z,53.59
2017-05-29T07:29:15.604Z,53.21
2017-05-29T07:30:29.758Z,53.21
2017-05-29T07:31:45.505Z,53.21
2017-05-29T07:33:00.978Z,52.92
2017-05-29T07:34:16.443Z,53.33
2017-05-29T07:35:31.910Z,53.14
2017-05-29T07:36:47.575Z,53.23
2017-05-29T07:38:03.115Z,52.75
2017-05-29T07:39:18.554Z,52.95
2017-05-29T07:40:33.994Z,52.85
2017-05-29T07:41:49.687Z,52.75
2017-05-29T07:43:05.094Z,52.58
2017-05-29T07:44:20.577Z,52.87
2017-05-29T07:45:34.795Z,52.49
2017-05-29T07:46:50.478Z,51.42
2017-05-29T07:48:05.922Z,51.45
2017-05-29T07:49:21.384Z,50.96
2017-05-29T07:50:35.531Z,50.96
2017-05-29T07:51:51.524Z,50.67
2017-05-29T07:53:06.985Z,50.67
2017-05-29T07:54:22.464Z,50.57
2017-05-29T07:55:38.030Z,50.48
2017-05-29T07:56:53.831Z,49.92
2017-05-29T07:58:08.980Z,49.73
2017-05-29T07:59:24.407Z,49.63
2017-05-29T08:00:38.594Z,49.15
2017-05-29T08:01:54.231Z,47.69
2017-05-29T08:03:09.736Z,47.52
2017-05-29T08:04:23.915Z,47.03
2017-05-29T08:05:39.476Z,46.94
2017-05-29T08:06:53.844Z,47.03
2017-05-29T08:08:09.812Z,46.84
2017-05-29T08:09:25.266Z,47.42
2017-05-29T08:10:40.760Z,47.72
2017-05-29T08:11:54.933Z,47.42
2017-05-29T08:13:10.952Z,47.52
2017-05-29T08:14:26.413Z,47.62
2017-05-29T08:15:42.161Z,48.1
2017-05-29T08:16:56.171Z,48.2
2017-05-29T08:18:11.900Z,48.1
2017-05-29T08:19:27.590Z,48.2
2017-05-29T08:20:41.612Z,48.2
2017-05-29T08:21:57.048Z,48.3
2017-05-29T08:23:12.760Z,48.49
2017-05-29T08:24:28.250Z,48.69
2017-05-29T08:25:43.743Z,47.91
2017-05-29T08:26:59.221Z,48.59
2017-05-29T08:28:15.075Z,48.97
2017-05-29T08:29:30.519Z,49.37
2017-05-29T08:30:44.630Z,49.05
2017-05-29T08:31:59.880Z,49.24
2017-05-29T08:33:14.284Z,49.24
2017-05-29T08:34:29.815Z,49.37
2017-05-29T08:35:45.218Z,49.27
2017-05-29T08:37:00.737Z,49.17
2017-05-29T08:38:16.772Z,48.78
2017-05-29T08:39:32.287Z,49.15
2017-05-29T08:40:47.760Z,49.37
2017-05-29T08:42:03.264Z,49.37
2017-05-29T08:43:19.036Z,48.88
2017-05-29T08:44:34.474Z,48.88
2017-05-29T08:45:49.977Z,49
2017-05-29T08:47:05.505Z,48.32
2017-05-29T08:48:19.792Z,47.83
2017-05-29T08:49:33.941Z,47.57
2017-05-29T08:50:49.537Z,46.89
2017-05-29T08:52:05.048Z,46.33
2017-05-29T08:53:19.462Z,45.77
2017-05-29T08:54:35.211Z,44.79
2017-05-29T08:55:50.656Z,43.48
2017-05-29T08:57:04.839Z,43.48
2017-05-29T08:58:20.487Z,42.91
2017-05-29T08:59:34.658Z,42.72
2017-05-29T09:00:50.111Z,42.72
2017-05-29T09:02:05.253Z,42.04
2017-05-29T09:03:20.920Z,41.96
2017-05-29T09:04:36.409Z,41.28
2017-05-29T09:05:51.877Z,41.57
2017-05-29T09:07:06.025Z,41.77
2017-05-29T09:08:20.427Z,41.3
2017-05-29T09:09:34.788Z,41.2
2017-05-29T09:10:49.950Z,41.6
2017-05-29T09:12:04.083Z,41.4
2017-05-29T09:13:19.857Z,41.6
2017-05-29T09:14:35.517Z,41.32
2017-05-29T09:15:50.946Z,40.27
2017-05-29T09:17:05.124Z,40.27
2017-05-29T09:18:20.706Z,40.08
2017-05-29T09:19:36.333Z,39.88
2017-05-29T09:20:51.857Z,39.98
2017-05-29T09:22:07.317Z,39.29
2017-05-29T09:23:22.729Z,39.29
2017-05-29T09:24:38.317Z,39.51
2017-05-29T09:25:53.823Z,38.73
2017-05-29T09:27:08.017Z,38.06
2017-05-29T09:28:23.506Z,37.77
2017-05-29T09:29:39.014Z,37.79
2017-05-29T09:30:52.839Z,37.89
2017-05-29T09:32:08.351Z,37.62
2017-05-29T09:33:24.112Z,37.22
2017-05-29T09:34:36.830Z,36.75
2017-05-29T09:35:50.923Z,36.75
2017-05-29T09:37:06.366Z,36.67
2017-05-29T09:38:21.940Z,36.1
2017-05-29T09:39:37.665Z,34.74
2017-05-29T09:40:51.704Z,35.53
2017-05-29T09:42:07.171Z,35.22
2017-05-29T09:43:22.665Z,34.06
2017-05-29T09:44:38.573Z,34.75
2017-05-29T09:45:54.113Z,33.77
2017-05-29T09:47:09.583Z,34.26
2017-05-29T09:48:25.034Z,34.55
2017-05-29T09:49:39.261Z,34.55
2017-05-29T09:50:54.699Z,34.55
2017-05-29T09:52:10.156Z,34.08
2017-05-29T09:53:24.397Z,34.77
2017-05-29T09:54:38.847Z,33.89
2017-05-29T09:55:54.289Z,33.02
2017-05-29T09:57:08.459Z,31.48
2017-05-29T09:58:23.886Z,32.07
2017-05-29T09:59:38.305Z,31.77
2017-05-29T10:00:53.805Z,31.7
2017-05-29T10:02:07.940Z,31.32
2017-05-29T10:03:23.413Z,30.84
2017-05-29T10:04:39.815Z,29.97
2017-05-29T10:05:53.967Z,29.3
2017-05-29T10:07:09.453Z,29.31
2017-05-29T10:08:24.915Z,29.21
2017-05-29T10:09:40.679Z,28.92
2017-05-29T10:10:56.187Z,28.74
2017-05-29T10:12:11.666Z,28.54
2017-05-29T10:13:27.209Z,28.34
2017-05-29T10:14:42.899Z,28.83
2017-05-29T10:15:58.536Z,28.54
2017-05-29T10:17:13.992Z,28.93
2017-05-29T10:18:29.722Z,28.83
2017-05-29T10:19:45.452Z,28.45
2017-05-29T10:20:59.586Z,28.75
2017-05-29T10:22:15.071Z,28.55
2017-05-29T10:23:30.582Z,28.55
2017-05-29T10:24:46.280Z,28.08
2017-05-29T10:26:01.777Z,28.56
2017-05-29T10:27:17.554Z,28.65
2017-05-29T10:28:31.716Z,28.75
2017-05-29T10:29:47.616Z,28.95
2017-05-29T10:31:01.791Z,28.36
2017-05-29T10:32:15.983Z,28.24
2017-05-29T10:33:31.407Z,28.92
2017-05-29T10:34:47.098Z,29.02
2017-05-29T10:36:01.258Z,29.39
2017-05-29T10:37:16.772Z,29.3
2017-05-29T10:38:32.259Z,29
2017-05-29T10:39:47.923Z,29.2
2017-05-29T10:41:03.474Z,29.3
2017-05-29T10:42:18.955Z,29.3
2017-05-29T10:43:34.470Z,28.92
2017-05-29T10:44:48.838Z,28.63
2017-05-29T10:46:03.011Z,28.52
2017-05-29T10:47:18.792Z,29.02
2017-05-29T10:48:34.322Z,28.72
2017-05-29T10:49:50.054Z,28.33
2017-05-29T10:51:05.581Z,28.52
2017-05-29T10:52:21.284Z,28.92
2017-05-29T10:53:36.742Z,29.21
2017-05-29T10:54:50.937Z,29.21
2017-05-29T10:56:06.416Z,29.31
2017-05-29T10:57:21.907Z,29.02
2017-05-29T10:58:37.425Z,28.83
2017-05-29T10:59:50.475Z,28.74
2017-05-29T11:01:05.978Z,29.11
2017-05-29T11:02:21.442Z,29.8
2017-05-29T11:03:37.129Z,28.83
2017-05-29T11:04:52.750Z,28.93
2017-05-29T11:06:06.969Z,29.02
2017-05-29T11:07:22.439Z,29.31
2017-05-29T11:08:37.898Z,29.11
2017-05-29T11:09:53.635Z,29.11
2017-05-29T11:11:07.772Z,29.02
2017-05-29T11:12:23.196Z,28.83
2017-05-29T11:13:37.483Z,28.85
2017-05-29T11:14:52.560Z,28.55
2017-05-29T11:16:07.226Z,28.66
2017-05-29T11:17:22.682Z,28.66
2017-05-29T11:18:38.207Z,28.96
2017-05-29T11:19:53.696Z,28.75
2017-05-29T11:21:09.486Z,29.05
2017-05-29T11:22:23.668Z,29.13
2017-05-29T11:23:37.874Z,29.23
2017-05-29T11:24:53.379Z,29.62
2017-05-29T11:26:09.079Z,29.33
2017-05-29T11:27:24.610Z,29.62
2017-05-29T11:28:40.087Z,29.62
2017-05-29T11:29:55.497Z,29.8
2017-05-29T11:31:11.267Z,29.51
2017-05-29T11:32:26.714Z,29.23
2017-05-29T11:33:42.192Z,29.23
2017-05-29T11:34:58.381Z,29.03
2017-05-29T11:36:13.693Z,29.33
2017-05-29T11:37:26.761Z,29.13
2017-05-29T11:38:42.275Z,29.23
2017-05-29T11:39:56.958Z,28.95
2017-05-29T11:41:11.443Z,28.85
2017-05-29T11:42:26.943Z,28.26
2017-05-29T11:43:42.471Z,29.06
2017-05-29T11:44:58.196Z,28.56
2017-05-29T11:46:13.864Z,27.97
2017-05-29T11:47:29.394Z,27.97
2017-05-29T11:48:44.854Z,27.48
2017-05-29T11:50:00.654Z,27.97
2017-05-29T11:51:16.476Z,27.78
2017-05-29T11:52:31.985Z,28.06
2017-05-29T11:53:47.463Z,27.96
2017-05-29T11:55:02.537Z,28.55
2017-05-29T11:56:15.465Z,28.65
2017-05-29T11:57:30.993Z,28.24
2017-05-29T11:58:45.225Z,28.34
2017-05-29T12:00:00.721Z,28.24
2017-05-29T12:01:16.691Z,28.54
2017-05-29T12:02:30.917Z,28.64
2017-05-29T12:03:46.477Z,28.44
2017-05-29T12:05:00.667Z,28.14
2017-05-29T12:06:14.949Z,28.14
2017-05-29T12:07:29.078Z,27.86
2017-05-29T12:08:44.604Z,27.67
2017-05-29T12:10:00.066Z,27.37
2017-05-29T12:11:15.708Z,27.08
2017-05-29T12:12:31.512Z,28.16
2017-05-29T12:13:45.700Z,27.95
2017-05-29T12:15:01.216Z,28.05
2017-05-29T12:16:16.819Z,28.14
2017-05-29T12:17:32.299Z,28.52
2017-05-29T12:18:47.719Z,28.33
2017-05-29T12:20:03.290Z,28.24
2017-05-29T12:21:19.036Z,28.54
2017-05-29T12:22:33.178Z,28.64
2017-05-29T12:23:44.570Z,27.74
2017-05-29T12:25:00.020Z,28.42
2017-05-29T12:26:15.818Z,28.63
2017-05-29T12:27:31.554Z,28.51
2017-05-29T12:28:47.042Z,29
2017-05-29T12:30:01.205Z,29.59
2017-05-29T12:31:16.985Z,29.38
2017-05-29T12:32:32.737Z,29.96
2017-05-29T12:33:46.761Z,29.76
2017-05-29T12:35:02.286Z,29.86
2017-05-29T12:36:17.414Z,29.64
2017-05-29T12:37:33.177Z,30.14
2017-05-29T12:38:48.683Z,30.43
2017-05-29T12:40:02.851Z,30.63
2017-05-29T12:41:18.553Z,30.93
2017-05-29T12:42:32.958Z,31.41
2017-05-29T12:43:45.657Z,31.89
2017-05-29T12:45:01.118Z,32.18
2017-05-29T12:46:15.292Z,31.99
2017-05-29T12:47:31.051Z,31.68
2017-05-29T12:48:46.723Z,31.68
2017-05-29T12:50:02.227Z,32.17
2017-05-29T12:51:17.779Z,32.27
2017-05-29T12:52:33.825Z,31.87
2017-05-29T12:53:47.984Z,31.68
2017-05-29T12:55:03.512Z,31.97
2017-05-29T12:56:18.995Z,32.54
2017-05-29T12:57:34.719Z,32.94
2017-05-29T12:58:50.271Z,32.94
2017-05-29T13:00:05.759Z,32.94
2017-05-29T13:01:21.250Z,33.61
2017-05-29T13:02:37.150Z,33.31
2017-05-29T13:03:52.688Z,33.41
2017-05-29T13:05:06.747Z,33.22
2017-05-29T13:06:22.261Z,33.31
2017-05-29T13:07:37.734Z,33.7
2017-05-29T13:08:52.852Z,33.12
2017-05-29T13:10:08.350Z,32.82
2017-05-29T13:11:23.807Z,33.31
2017-05-29T13:12:38.240Z,33.61
2017-05-29T13:13:53.367Z,33.79
2017-05-29T13:15:08.797Z,33.69
2017-05-29T13:16:23.000Z,33.89
2017-05-29T13:17:38.670Z,34.08
2017-05-29T13:18:54.168Z,33.69
2017-05-29T13:20:09.654Z,33
2017-05-29T13:21:25.072Z,32.71
2017-05-29T13:22:40.753Z,32.61
2017-05-29T13:23:56.240Z,32.9
2017-05-29T13:25:10.351Z,31.14
2017-05-29T13:26:24.563Z,30.94
2017-05-29T13:27:39.080Z,31.04
2017-05-29T13:28:54.484Z,30.75
2017-05-29T13:30:09.971Z,30.83
2017-05-29T13:31:25.455Z,30.44
2017-05-29T13:32:41.430Z,29.46
2017-05-29T13:33:55.491Z,29.56
2017-05-29T13:35:10.920Z,29.17
2017-05-29T13:36:26.381Z,29.95
2017-05-29T13:37:42.173Z,30.64
2017-05-29T13:38:57.658Z,31.13
2017-05-29T13:40:11.956Z,30.74
2017-05-29T13:41:27.461Z,30.44
2017-05-29T13:42:43.194Z,30.35
2017-05-29T13:43:58.747Z,30.25
2017-05-29T13:45:14.189Z,30.44
2017-05-29T13:46:28.246Z,30.64
2017-05-29T13:47:43.975Z,30.93
2017-05-29T13:48:59.673Z,31.13
2017-05-29T13:50:15.191Z,31.23
2017-05-29T13:51:30.675Z,31.42
2017-05-29T13:52:46.291Z,31.32
2017-05-29T13:54:01.806Z,31.32
2017-05-29T13:55:17.388Z,32.01
2017-05-29T13:56:32.858Z,31.99
2017-05-29T13:57:48.666Z,32.78
2017-05-29T13:59:02.738Z,32.97
2017-05-29T14:00:18.235Z,33.26
2017-05-29T14:01:33.696Z,33.56
2017-05-29T14:02:47.933Z,33.56
2017-05-29T14:04:02.117Z,33.75
2017-05-29T14:05:17.614Z,34.14
2017-05-29T14:06:33.103Z,34.74
2017-05-29T14:07:48.822Z,34.74
2017-05-29T14:09:04.419Z,35.03
2017-05-29T14:10:20.009Z,35.13
2017-05-29T14:11:35.611Z,34.93
2017-05-29T14:12:51.562Z,35.91
2017-05-29T14:14:05.727Z,36
2017-05-29T14:15:21.244Z,36.3
2017-05-29T14:16:36.709Z,36.4
2017-05-29T14:17:52.555Z,36.49
2017-05-29T14:19:08.127Z,36.4
2017-05-29T14:20:23.591Z,36.59
2017-05-29T14:21:39.094Z,36.98
2017-05-29T14:22:54.992Z,36.87
2017-05-29T14:24:10.524Z,36.59
2017-05-29T14:25:26.019Z,36.69
2017-05-29T14:26:39.787Z,36.49
2017-05-29T14:27:55.465Z,36.87
2017-05-29T14:29:10.972Z,36.77
2017-05-29T14:30:26.070Z,37.26
2017-05-29T14:31:41.689Z,37.16
2017-05-29T14:32:56.167Z,37.06
2017-05-29T14:34:11.573Z,37.55
2017-05-29T14:35:27.171Z,37.26
2017-05-29T14:36:42.383Z,37.26
2017-05-29T14:37:58.069Z,37.93
2017-05-29T14:39:12.210Z,38.02
2017-05-29T14:40:27.782Z,38.32
2017-05-29T14:41:43.267Z,39.78
2017-05-29T14:42:59.000Z,39.86
2017-05-29T14:44:14.516Z,39.39
2017-05-29T14:45:30.088Z,39.29
2017-05-29T14:46:44.222Z,39.78
2017-05-29T14:47:58.416Z,39.78
2017-05-29T14:49:14.144Z,39.78
2017-05-29T14:50:28.575Z,39.98
2017-05-29T14:51:42.713Z,40.17
2017-05-29T14:52:58.252Z,40.27
2017-05-29T14:54:13.980Z,40.08
2017-05-29T14:55:28.118Z,40.08
2017-05-29T14:56:43.653Z,40.56
2017-05-29T14:57:59.129Z,40.37
2017-05-29T14:59:15.202Z,40.17
2017-05-29T15:00:30.680Z,40.47
2017-05-29T15:01:46.179Z,39.98
2017-05-29T15:03:01.746Z,40.08
2017-05-29T15:04:17.455Z,39.98
2017-05-29T15:05:32.999Z,40.27
2017-05-29T15:06:47.463Z,40.66
2017-05-29T15:08:01.544Z,40.66
2017-05-29T15:09:17.245Z,40.56
2017-05-29T15:10:32.773Z,40.27
2017-05-29T15:11:48.509Z,40.66
2017-05-29T15:13:03.689Z,41.15
2017-05-29T15:14:19.373Z,40.56
2017-05-29T15:15:34.836Z,40.56
2017-05-29T15:16:50.516Z,40.27
2017-05-29T15:18:06.175Z,40.76
2017-05-29T15:19:20.563Z,40.66
2017-05-29T15:20:36.111Z,40.56
2017-05-29T15:21:51.579Z,40.86
2017-05-29T15:23:07.001Z,40.95
2017-05-29T15:24:22.636Z,41.15
2017-05-29T15:25:38.203Z,40.95
2017-05-29T15:26:53.795Z,40.66
2017-05-29T15:28:09.274Z,41.05
2017-05-29T15:29:23.660Z,41.15
2017-05-29T15:30:39.417Z,40.66
2017-05-29T15:31:53.447Z,41.15
2017-05-29T15:33:08.978Z,41.15
2017-05-29T15:34:24.624Z,40.56
2017-05-29T15:35:37.606Z,41.35
2017-05-29T15:36:53.166Z,40.95
2017-05-29T15:38:07.295Z,40.86
2017-05-29T15:39:22.974Z,40.76
2017-05-29T15:40:36.984Z,40.86
2017-05-29T15:41:52.474Z,40.84
2017-05-29T15:43:07.948Z,41.03
2017-05-29T15:44:23.637Z,40.94
2017-05-29T15:45:39.201Z,41.33
2017-05-29T15:46:54.651Z,41.23
2017-05-29T15:48:10.154Z,41.52
2017-05-29T15:49:25.947Z,41.62
2017-05-29T15:50:41.433Z,41.33
2017-05-29T15:51:56.925Z,41.42
2017-05-29T15:53:10.743Z,41.62
2017-05-29T15:54:25.203Z,41.23
2017-05-29T15:55:40.794Z,41.62
2017-05-29T15:56:55.492Z,41.62
2017-05-29T15:58:11.005Z,41.52
2017-05-29T15:59:26.765Z,41.52
2017-05-29T16:00:42.233Z,41.91
2017-05-29T16:01:57.762Z,42.01
2017-05-29T16:03:13.245Z,42.3
2017-05-29T16:04:27.606Z,42.3
2017-05-29T16:05:43.115Z,42.3
2017-05-29T16:06:58.613Z,42.11
2017-05-29T16:08:14.370Z,41.91
2017-05-29T16:09:29.950Z,41.91
2017-05-29T16:10:45.426Z,42.01
2017-05-29T16:12:00.913Z,42.01
2017-05-29T16:13:16.429Z,41.91